createdAt,value
2017-10-13T16:01:39.489Z,951.4
2017-10-13T16:02:47.520Z,951.4
2017-10-13T16:03:55.624Z,951.4
2017-10-13T16:05:03.694Z,951.4
2017-10-13T16:06:11.783Z,951.4
2017-10-13T16:07:19.925Z,951.4
2017-10-13T16:08:27.952Z,951.4
2017-10-13T16:09:36.037Z,951.4
2017-10-13T16:10:44.133Z,951.4
2017-10-13T16:11:52.219Z,951.4
2017-10-13T16:13:00.366Z,951.4
2017-10-13T16:14:08.397Z,951.4
2017-10-13T16:15:16.481Z,951.5
2017-10-13T16:16:24.571Z,951.5
2017-10-13T16:17:32.754Z,951.5
2017-10-13T16:18:40.810Z,951.5
2017-10-13T16:19:48.839Z,951.5
2017-10-13T16:20:57.091Z,951.5
2017-10-13T16:22:05.010Z,951.5
2017-10-13T16:23:13.095Z,951.5
2017-10-13T16:24:21.243Z,951.5
2017-10-13T16:25:29.273Z,951.5
2017-10-13T16:26:37.362Z,951.5
2017-10-13T16:27:45.457Z,951.5
2017-10-13T16:28:53.537Z,951.6
2017-10-13T16:30:01.841Z,951.5
2017-10-13T16:31:09.711Z,951.6
2017-10-13T16:32:17.809Z,951.6
2017-10-13T16:33:26.012Z,951.6
2017-10-13T16:34:33.978Z,951.6
2017-10-13T16:35:42.204Z,951.6
2017-10-13T16:36:50.149Z,951.6
2017-10-13T16:37:58.233Z,951.6
2017-10-13T16:39:06.475Z,951.6
2017-10-13T16:40:14.488Z,951.6
2017-10-13T16:41:22.614Z,951.6
2017-10-13T16:42:30.584Z,951.6
2017-10-13T16:43:38.662Z,951.6
2017-10-13T16:44:46.751Z,951.6
2017-10-13T16:45:54.834Z,951.6
2017-10-13T16:47:02.976Z,951.6
2017-10-13T16:48:11.006Z,951.6
2017-10-13T16:49:19.413Z,951.7
2017-10-13T16:50:27.176Z,951.7
2017-10-13T16:51:35.267Z,951.7
2017-10-13T16:52:43.407Z,951.7
2017-10-13T16:53:51.635Z,951.7
2017-10-13T16:54:59.522Z,951.7
2017-10-13T16:56:07.603Z,951.8
2017-10-13T16:57:15.690Z,951.7
2017-10-13T16:58:23.921Z,951.7
2017-10-13T16:59:31.860Z,951.7
2017-10-13T17:00:39.948Z,951.7
2017-10-13T17:01:48.033Z,951.7
2017-10-13T17:02:56.193Z,951.7
2017-10-13T17:04:04.257Z,951.7
2017-10-13T17:05:12.343Z,951.7
2017-10-13T17:06:20.377Z,951.6
2017-10-13T17:07:28.552Z,951.7
2017-10-13T17:08:36.547Z,951.6
2017-10-13T17:09:44.688Z,951.7
2017-10-13T17:10:52.717Z,951.7
2017-10-13T17:12:00.879Z,951.7
2017-10-13T17:13:08.887Z,951.7
2017-10-13T17:14:16.974Z,951.8
2017-10-13T17:15:25.183Z,951.8
2017-10-13T17:16:33.248Z,951.8
2017-10-13T17:17:41.232Z,951.8
2017-10-13T17:18:49.325Z,951.8
2017-10-13T17:19:57.424Z,951.8
2017-10-13T17:21:05.643Z,951.8
2017-10-13T17:22:13.598Z,951.8
2017-10-13T17:23:21.666Z,951.8
2017-10-13T17:24:29.754Z,951.9
2017-10-13T17:25:37.839Z,951.9
2017-10-13T17:26:46.046Z,951.9
2017-10-13T17:27:54.016Z,951.9
2017-10-13T17:29:02.123Z,951.9
2017-10-13T17:30:10.369Z,951.9
2017-10-13T17:31:18.294Z,951.9
2017-10-13T17:32:26.414Z,951.9
2017-10-13T17:33:34.443Z,951.9
2017-10-13T17:34:42.544Z,951.9
2017-10-13T17:35:50.741Z,952.0
2017-10-13T17:36:58.846Z,952.0
2017-10-13T17:38:06.850Z,952.0
2017-10-13T17:39:14.879Z,952.0
2017-10-13T17:40:23.079Z,952.0
2017-10-13T17:41:31.050Z,951.9
2017-10-13T17:42:39.136Z,952.0
2017-10-13T17:43:47.279Z,952.0
2017-10-13T17:44:55.327Z,952.0
2017-10-13T17:46:03.401Z,952.0
2017-10-13T17:47:11.487Z,952.0
2017-10-13T17:48:19.571Z,952.0
2017-10-13T17:49:27.894Z,952.0
2017-10-13T17:50:35.745Z,952.0
2017-10-13T17:51:43.829Z,952.0
2017-10-13T17:52:51.990Z,952.0
2017-10-13T17:54:00.020Z,952.0
2017-10-13T17:55:08.228Z,952.1
2017-10-13T17:56:16.203Z,952.0
2017-10-13T17:57:24.288Z,952.0
2017-10-13T17:58:32.373Z,952.0
2017-10-13T17:59:40.461Z,952.0
2017-10-13T18:00:48.628Z,952.0
2017-10-13T18:01:56.655Z,952.0
2017-10-13T18:03:04.749Z,952.1
2017-10-13T18:04:12.836Z,952.1
2017-10-13T18:05:20.918Z,952.1
2017-10-13T18:06:29.123Z,952.1
2017-10-13T18:07:37.151Z,952.1
2017-10-13T18:08:45.417Z,952.1
2017-10-13T18:09:53.257Z,952.1
2017-10-13T18:11:01.342Z,952.1
2017-10-13T18:12:09.644Z,952.1
2017-10-13T18:13:17.518Z,952.0
2017-10-13T18:14:25.605Z,952.1
2017-10-13T18:15:33.692Z,952.1
2017-10-13T18:16:41.812Z,952.1
2017-10-13T18:17:49.979Z,952.1
2017-10-13T18:18:57.945Z,952.2
2017-10-13T18:20:06.034Z,952.2
2017-10-13T18:21:14.122Z,952.2
2017-10-13T18:22:22.207Z,952.1
2017-10-13T18:23:30.348Z,952.1
2017-10-13T18:24:38.433Z,952.2
2017-10-13T18:25:46.471Z,952.1
2017-10-13T18:26:54.553Z,952.2
2017-10-13T18:28:02.640Z,952.1
2017-10-13T18:29:10.847Z,952.1
2017-10-13T18:30:18.815Z,952.2
2017-10-13T18:31:27.068Z,952.2
2017-10-13T18:32:34.983Z,952.1
2017-10-13T18:33:43.068Z,952.1
2017-10-13T18:34:51.275Z,952.1
2017-10-13T18:35:59.246Z,952.1
2017-10-13T18:37:07.341Z,952.1
2017-10-13T18:38:15.424Z,952.1
2017-10-13T18:39:23.725Z,952.1
2017-10-13T18:40:31.659Z,952.1
2017-10-13T18:41:39.679Z,952.1
2017-10-13T18:42:47.765Z,952.2
2017-10-13T18:43:55.850Z,952.1
2017-10-13T18:45:03.938Z,952.2
2017-10-13T18:46:12.080Z,952.1
2017-10-13T18:47:20.108Z,952.2
2017-10-13T18:48:28.191Z,952.1
2017-10-13T18:49:36.360Z,952.1
2017-10-13T18:50:44.373Z,952.1
2017-10-13T18:51:52.523Z,952.1
2017-10-13T18:53:00.542Z,952.1
2017-10-13T18:54:08.627Z,952.1
2017-10-13T18:55:16.713Z,952.1
2017-10-13T18:56:24.920Z,952.2
2017-10-13T18:57:32.949Z,952.1
2017-10-13T18:58:41.129Z,952.2
2017-10-13T18:59:49.055Z,952.2
2017-10-13T19:00:57.142Z,952.1
2017-10-13T19:02:05.427Z,952.1
2017-10-13T19:02:05.445Z,952.1
2017-10-13T19:03:13.372Z,952.1
2017-10-13T19:04:21.651Z,952.2
2017-10-13T19:05:29.487Z,952.2
2017-10-13T19:06:37.569Z,952.2
2017-10-13T19:07:45.689Z,952.2
2017-10-13T19:08:53.794Z,952.2
2017-10-13T19:10:01.825Z,952.2
2017-10-13T19:11:09.909Z,952.2
2017-10-13T19:12:18.199Z,952.2
2017-10-13T19:13:26.085Z,952.2
2017-10-13T19:14:34.305Z,952.2
2017-10-13T19:15:42.276Z,952.2
2017-10-13T19:16:50.357Z,952.2
2017-10-13T19:17:58.443Z,952.2
2017-10-13T19:19:06.528Z,952.2
2017-10-13T19:20:14.678Z,952.3
2017-10-13T19:21:22.699Z,952.2
2017-10-13T19:22:30.783Z,952.3
2017-10-13T19:23:38.869Z,952.3
2017-10-13T19:24:46.966Z,952.3
2017-10-13T19:25:55.242Z,952.4
2017-10-13T19:27:03.126Z,952.3
2017-10-13T19:28:11.332Z,952.4
2017-10-13T19:29:19.298Z,952.3
2017-10-13T19:30:27.529Z,952.3
2017-10-13T19:31:35.521Z,952.3
2017-10-13T19:32:43.555Z,952.3
2017-10-13T19:33:51.650Z,952.3
2017-10-13T19:34:59.731Z,952.3
2017-10-13T19:36:07.810Z,952.4
2017-10-13T19:37:15.969Z,952.3
2017-10-13T19:38:23.995Z,952.3
2017-10-13T19:39:32.068Z,952.4
2017-10-13T19:40:40.157Z,952.4
2017-10-13T19:41:48.240Z,952.4
2017-10-13T19:42:56.381Z,952.4
2017-10-13T19:44:04.529Z,952.4
2017-10-13T19:45:12.692Z,952.4
2017-10-13T19:46:20.579Z,952.4
2017-10-13T19:47:28.669Z,952.4
2017-10-13T19:48:36.901Z,952.4
2017-10-13T19:49:44.848Z,952.4
2017-10-13T19:50:52.936Z,952.4
2017-10-13T19:52:01.010Z,952.4
2017-10-13T19:53:09.218Z,952.4
2017-10-13T19:54:17.297Z,952.4
2017-10-13T19:55:25.278Z,952.4
2017-10-13T19:56:33.377Z,952.4
2017-10-13T19:57:41.474Z,952.4
2017-10-13T19:58:49.588Z,952.4
2017-10-13T19:59:57.685Z,952.4
2017-10-13T20:01:05.716Z,952.3
2017-10-13T20:02:13.802Z,952.3
2017-10-13T20:03:21.888Z,952.4
2017-10-13T20:04:29.973Z,952.4
2017-10-13T20:05:38.199Z,952.4
2017-10-13T20:06:46.144Z,952.3
2017-10-13T20:07:54.234Z,952.4
2017-10-13T20:09:02.326Z,952.4
2017-10-13T20:10:10.407Z,952.4
2017-10-13T20:11:18.547Z,952.4
2017-10-13T20:12:26.630Z,952.4
2017-10-13T20:13:34.663Z,952.4
2017-10-13T20:14:42.752Z,952.4
2017-10-13T20:15:50.909Z,952.4
2017-10-13T20:16:58.980Z,952.4
2017-10-13T20:18:07.020Z,952.4
2017-10-13T20:19:15.106Z,952.4
2017-10-13T20:20:23.188Z,952.5
2017-10-13T20:21:31.276Z,952.4
2017-10-13T20:22:39.418Z,952.4
2017-10-13T20:23:47.448Z,952.5
2017-10-13T20:24:55.540Z,952.4
2017-10-13T20:26:03.641Z,952.5
2017-10-13T20:27:11.710Z,952.4
2017-10-13T20:28:19.862Z,952.5
2017-10-13T20:29:27.885Z,952.5
2017-10-13T20:30:35.996Z,952.5
2017-10-13T20:31:44.177Z,952.5
2017-10-13T20:32:52.140Z,952.5
2017-10-13T20:34:00.284Z,952.5
2017-10-13T20:35:08.369Z,952.5
2017-10-13T20:36:16.474Z,952.5
2017-10-13T20:37:24.488Z,952.5
2017-10-13T20:38:32.589Z,952.5
2017-10-13T20:39:40.742Z,952.6
2017-10-13T20:40:48.758Z,952.5
2017-10-13T20:41:56.833Z,952.6
2017-10-13T20:43:04.918Z,952.5
2017-10-13T20:44:13.148Z,952.6
2017-10-13T20:45:21.201Z,952.5
2017-10-13T20:46:29.173Z,952.5
2017-10-13T20:47:37.318Z,952.5
2017-10-13T20:48:45.474Z,952.5
2017-10-13T20:49:53.442Z,952.5
2017-10-13T20:51:01.581Z,952.5
2017-10-13T20:52:09.608Z,952.5
2017-10-13T20:53:17.706Z,952.5
2017-10-13T20:54:25.785Z,952.5
2017-10-13T20:55:33.872Z,952.4
2017-10-13T20:56:42.028Z,952.4
2017-10-13T20:57:50.061Z,952.4
2017-10-13T20:58:58.130Z,952.4
2017-10-13T21:00:06.215Z,952.4
2017-10-13T21:01:14.312Z,952.4
2017-10-13T21:02:22.440Z,952.4
2017-10-13T21:03:30.568Z,952.5
2017-10-13T21:04:38.556Z,952.4
2017-10-13T21:05:46.646Z,952.5
2017-10-13T21:06:54.735Z,952.4
2017-10-13T21:08:02.875Z,952.4
2017-10-13T21:09:10.906Z,952.4
2017-10-13T21:10:18.989Z,952.4
2017-10-13T21:11:27.075Z,952.4
2017-10-13T21:12:35.176Z,952.4
2017-10-13T21:13:43.303Z,952.4
2017-10-13T21:14:51.333Z,952.4
2017-10-13T21:15:59.420Z,952.4
2017-10-13T21:17:07.509Z,952.4
2017-10-13T21:18:15.591Z,952.4
2017-10-13T21:19:23.867Z,952.4
2017-10-13T21:20:31.926Z,952.4
2017-10-13T21:21:40.164Z,952.4
2017-10-13T21:22:48.076Z,952.4
2017-10-13T21:23:56.157Z,952.4
2017-10-13T21:25:04.427Z,952.4
2017-10-13T21:26:12.331Z,952.4
2017-10-13T21:27:20.414Z,952.4
2017-10-13T21:28:28.499Z,952.4
2017-10-13T21:29:36.587Z,952.4
2017-10-13T21:30:44.729Z,952.5
2017-10-13T21:31:52.760Z,952.5
2017-10-13T21:33:00.844Z,952.4
2017-10-13T21:34:08.931Z,952.4
2017-10-13T21:35:17.074Z,952.4
2017-10-13T21:36:25.226Z,952.5
2017-10-13T21:37:33.190Z,952.5
2017-10-13T21:38:41.275Z,952.5
2017-10-13T21:39:49.364Z,952.5
2017-10-13T21:40:57.448Z,952.5
2017-10-13T21:42:05.705Z,952.5
2017-10-13T21:43:13.621Z,952.4
2017-10-13T21:44:21.890Z,952.5
2017-10-13T21:45:29.796Z,952.4
2017-10-13T21:46:37.881Z,952.4
2017-10-13T21:47:46.146Z,952.4
2017-10-13T21:48:54.100Z,952.4
2017-10-13T21:50:02.139Z,952.5
2017-10-13T21:51:10.282Z,952.5
2017-10-13T21:52:18.313Z,952.5
2017-10-13T21:53:26.610Z,952.5
2017-10-13T21:54:34.583Z,952.5
2017-10-13T21:55:42.658Z,952.5
2017-10-13T21:56:50.778Z,952.5
2017-10-13T21:57:58.839Z,952.5
2017-10-13T21:59:07.176Z,952.5
2017-10-13T22:00:14.991Z,952.5
2017-10-13T22:01:23.004Z,952.5
2017-10-13T22:02:31.149Z,952.5
2017-10-13T22:03:39.247Z,952.5
2017-10-13T22:04:47.469Z,952.5
2017-10-13T22:05:55.523Z,952.5
2017-10-13T22:07:03.560Z,952.5
2017-10-13T22:08:11.524Z,952.5
2017-10-13T22:09:19.705Z,952.5
2017-10-13T22:10:28.011Z,952.6
2017-10-13T22:11:35.887Z,952.5
2017-10-13T22:12:43.882Z,952.5
2017-10-13T22:13:51.955Z,952.5
2017-10-13T22:15:00.142Z,952.5
2017-10-13T22:16:08.617Z,952.5
2017-10-13T22:17:16.303Z,952.5
2017-10-13T22:18:24.302Z,952.5
2017-10-13T22:19:32.390Z,952.5
2017-10-13T22:20:40.632Z,952.5
2017-10-13T22:21:48.873Z,952.5
2017-10-13T22:22:56.709Z,952.5
2017-10-13T22:24:04.739Z,952.5
2017-10-13T22:25:12.910Z,952.5
2017-10-13T22:26:20.974Z,952.5
2017-10-13T22:27:29.343Z,952.5
2017-10-13T22:28:37.084Z,952.5
2017-10-13T22:29:45.270Z,952.5
2017-10-13T22:30:53.354Z,952.5
2017-10-13T22:32:01.460Z,952.5
2017-10-13T22:33:09.496Z,952.5
2017-10-13T22:34:17.568Z,952.5
2017-10-13T22:35:25.703Z,952.5
2017-10-13T22:36:33.799Z,952.5
2017-10-13T22:37:41.858Z,952.5
2017-10-13T22:38:50.209Z,952.5
2017-10-13T22:39:57.957Z,952.5
2017-10-13T22:41:06.041Z,952.5
2017-10-13T22:42:14.197Z,952.5
2017-10-13T22:43:22.336Z,952.5
2017-10-13T22:44:30.650Z,952.5
2017-10-13T22:45:38.401Z,952.5
2017-10-13T22:46:46.475Z,952.5
2017-10-13T22:47:54.662Z,952.5
2017-10-13T22:49:02.741Z,952.5
2017-10-13T22:50:11.081Z,952.5
2017-10-13T22:51:19.115Z,952.6
2017-10-13T22:52:26.915Z,952.5
2017-10-13T22:53:35.060Z,952.6
2017-10-13T22:54:43.205Z,952.5
2017-10-13T22:55:51.227Z,952.5
2017-10-13T22:56:59.264Z,952.5
2017-10-13T22:58:07.347Z,952.5
2017-10-13T22:59:15.435Z,952.5
2017-10-13T23:00:23.518Z,952.5
2017-10-13T23:01:31.728Z,952.6
2017-10-13T23:02:39.731Z,952.5
2017-10-13T23:03:47.783Z,952.6
2017-10-13T23:04:55.874Z,952.5
2017-10-13T23:06:03.960Z,952.5
2017-10-13T23:07:12.104Z,952.6
2017-10-13T23:08:20.135Z,952.5
2017-10-13T23:09:28.228Z,952.6
2017-10-13T23:10:36.432Z,952.5
2017-10-13T23:11:44.398Z,952.6
2017-10-13T23:12:52.547Z,952.6
2017-10-13T23:14:00.575Z,952.5
2017-10-13T23:15:08.655Z,952.5
2017-10-13T23:16:16.745Z,952.5
2017-10-13T23:17:24.834Z,952.5
2017-10-13T23:18:32.978Z,952.5
2017-10-13T23:19:41.007Z,952.5
2017-10-13T23:20:49.095Z,952.5
2017-10-13T23:21:57.182Z,952.5
2017-10-13T23:23:05.269Z,952.5
2017-10-13T23:24:13.476Z,952.5
2017-10-13T23:25:21.440Z,952.5
2017-10-13T23:26:29.584Z,952.5
2017-10-13T23:27:37.617Z,952.5
2017-10-13T23:28:45.705Z,952.5
2017-10-13T23:29:53.925Z,952.5
2017-10-13T23:31:01.878Z,952.5
2017-10-13T23:32:09.964Z,952.5
2017-10-13T23:33:18.052Z,952.4
2017-10-13T23:34:26.308Z,952.4
2017-10-13T23:35:34.290Z,952.4
2017-10-13T23:36:42.310Z,952.4
2017-10-13T23:37:50.398Z,952.4
2017-10-13T23:38:58.669Z,952.5
2017-10-13T23:40:06.579Z,952.4
2017-10-13T23:41:14.719Z,952.4
2017-10-13T23:42:22.870Z,952.5
2017-10-13T23:43:30.836Z,952.4
2017-10-13T23:44:38.926Z,952.5
2017-10-13T23:45:47.019Z,952.5
2017-10-13T23:46:55.162Z,952.5
2017-10-13T23:48:03.340Z,952.5
2017-10-13T23:49:11.374Z,952.5
2017-10-13T23:50:19.368Z,952.5
2017-10-13T23:51:27.455Z,952.5
2017-10-13T23:52:35.742Z,952.5
2017-10-13T23:53:43.640Z,952.4
2017-10-13T23:54:51.727Z,952.5
2017-10-13T23:55:59.834Z,952.5
2017-10-13T23:57:07.909Z,952.5
2017-10-13T23:58:16.045Z,952.5
2017-10-13T23:59:24.075Z,952.5
